Time;durP1;ratioP1;P1;durP2;ratioP2;P2;SDS_P1;SDS_P2;PMS_P1;PMS_P2;Temp;Humidity;BMP_temperature;BMP_pressure;BME280_temperature;BME280_humidity;BME280_pressure;Samples;Min_cycle;Max_cycle;Signal;HPM_P1;HPM_P2
2023/06/19 00:02:13;;;;;;;26.30;19.00;;;;;;;15.70;100.00;100674.23;106630;1250;71413;-84
2023/06/19 00:04:41;;;;;;;30.10;20.00;;;;;;;15.67;100.00;100670.73;109463;1249;61998;-84
2023/06/19 00:07:07;;;;;;;28.70;21.40;;;;;;;15.65;100.00;100671.14;108477;1251;59619;-84
2023/06/19 00:09:34;;;;;;;30.80;19.50;;;;;;;15.63;100.00;100672.16;107536;1251;70764;-83
2023/06/19 00:12:02;;;;;;;28.40;19.30;;;;;;;15.62;100.00;100672.26;106591;1251;62489;-84
2023/06/19 00:14:29;;;;;;;25.70;19.60;;;;;;;15.59;100.00;100671.57;106205;1251;72307;-87
2023/06/19 00:16:56;;;;;;;28.60;18.80;;;;;;;15.57;100.00;100672.13;106170;1251;62049;-87
2023/06/19 00:19:23;;;;;;;25.80;20.30;;;;;;;15.54;100.00;100672.52;106182;1253;59580;-86
2023/06/19 00:21:49;;;;;;;29.10;20.90;;;;;;;15.50;100.00;100672.66;106188;1253;73046;-85
2023/06/19 00:24:16;;;;;;;29.80;20.80;;;;;;;15.46;100.00;100675.65;106109;1254;63615;-85
2023/06/19 00:26:43;;;;;;;30.10;20.90;;;;;;;15.40;100.00;100673.95;106025;1251;72527;-86
2023/06/19 00:29:09;;;;;;;28.40;21.40;;;;;;;15.35;100.00;100669.63;106050;1253;60082;-84
2023/06/19 00:31:37;;;;;;;31.80;20.10;;;;;;;15.30;100.00;100671.04;105970;1252;60204;-86
2023/06/19 00:34:03;;;;;;;28.90;20.70;;;;;;;15.27;100.00;100667.98;105995;1254;71831;-85
2023/06/19 00:36:31;;;;;;;31.30;19.80;;;;;;;15.22;100.00;100670.12;106393;1251;63833;-84
2023/06/19 00:38:58;;;;;;;28.60;20.50;;;;;;;15.17;100.00;100669.06;105993;1251;72528;-84
2023/06/19 00:41:26;;;;;;;25.70;18.50;;;;;;;15.13;100.00;100672.39;106133;1254;60691;-84
2023/06/19 00:43:54;;;;;;;23.70;16.50;;;;;;;15.09;100.00;100669.38;106185;1253;59621;-86
2023/06/19 00:46:20;;;;;;;26.50;18.90;;;;;;;15.06;100.00;100665.59;106179;1253;73120;-84
2023/06/19 00:48:47;;;;;;;24.60;17.70;;;;;;;15.04;100.00;100668.70;106043;1255;62703;-84
2023/06/19 00:51:14;;;;;;;28.10;19.00;;;;;;;15.02;100.00;100666.91;106153;1250;71319;-86
2023/06/19 00:53:41;;;;;;;26.30;16.70;;;;;;;15.01;100.00;100669.48;106060;1253;61679;-86
2023/06/19 00:56:08;;;;;;;24.40;16.70;;;;;;;14.99;100.00;100667.48;106143;1256;59631;-86
2023/06/19 00:58:35;;;;;;;25.30;17.30;;;;;;;14.98;100.00;100667.42;105939;1257;73136;-85
2023/06/19 01:01:01;;;;;;;24.90;17.50;;;;;;;14.97;100.00;100664.84;106166;1251;62427;-84
2023/06/19 01:03:36;;;;;;;23.60;18.20;;;;;;;14.96;100.00;100665.79;105895;1256;72387;-84
2023/06/19 01:06:08;;;;;;;24.30;17.10;;;;;;;14.95;100.00;100668.39;105851;1256;61871;-85
2023/06/19 01:08:46;;;;;;;27.40;19.10;;;;;;;14.92;100.00;100667.50;106162;1251;60482;-84
2023/06/19 01:11:15;;;;;;;25.70;18.80;;;;;;;14.90;100.00;100669.10;106027;1251;73928;-87
2023/06/19 01:13:57;;;;;;;23.00;17.20;;;;;;;14.87;100.00;100666.88;106100;1257;63974;-87
2023/06/19 01:16:25;;;;;;;25.10;18.10;;;;;;;14.83;100.00;100665.38;106131;1254;72585;-85
2023/06/19 01:18:52;;;;;;;24.20;18.10;;;;;;;14.81;100.00;100667.67;106093;1254;60852;-84
2023/06/19 01:21:19;;;;;;;27.40;18.80;;;;;;;14.77;100.00;100664.96;106054;1251;60447;-85
2023/06/19 01:23:46;;;;;;;28.10;17.60;;;;;;;14.74;100.00;100664.54;106093;1252;73854;-86
2023/06/19 01:26:15;;;;;;;21.20;16.70;;;;;;;14.70;100.00;100664.42;105928;1256;63889;-86
2023/06/19 01:28:43;;;;;;;25.60;17.60;;;;;;;14.67;100.00;100667.33;106174;1251;71909;-85
2023/06/19 01:31:20;;;;;;;25.60;18.30;;;;;;;14.64;100.00;100670.05;106135;1252;62062;-87
2023/06/19 01:33:47;;;;;;;26.40;17.40;;;;;;;14.62;100.00;100673.55;106151;1251;60530;-86
2023/06/19 01:36:16;;;;;;;27.10;17.20;;;;;;;14.58;100.00;100672.23;106023;1256;73965;-85
2023/06/19 01:38:43;;;;;;;24.90;18.60;;;;;;;14.57;100.00;100671.47;106199;1250;62819;-85
2023/06/19 01:41:09;;;;;;;24.30;16.20;;;;;;;14.55;100.00;100675.81;105940;1251;72502;-86
2023/06/19 01:43:36;;;;;;;24.40;17.20;;;;;;;14.53;100.00;100672.06;106060;1254;61901;-84
2023/06/19 01:46:03;;;;;;;26.20;17.00;;;;;;;14.51;100.00;100670.95;106053;1253;60482;-86
2023/06/19 01:48:32;;;;;;;23.70;15.60;;;;;;;14.48;100.00;100674.68;106019;1251;73837;-87
2023/06/19 01:50:59;;;;;;;25.10;15.60;;;;;;;14.46;100.00;100677.30;105978;1263;63691;-86
2023/06/19 01:53:25;;;;;;;23.20;16.00;;;;;;;14.45;100.00;100677.23;106042;1257;72499;-83
2023/06/19 01:55:52;;;;;;;20.00;15.50;;;;;;;14.43;100.00;100679.84;109051;1249;61719;-84
2023/06/19 01:58:19;;;;;;;21.60;16.20;;;;;;;14.43;100.00;100681.98;109021;1251;60219;-84
2023/06/19 02:00:46;;;;;;;22.60;16.40;;;;;;;14.43;100.00;100681.56;107201;1254;72353;-84
2023/06/19 02:03:13;;;;;;;21.60;15.30;;;;;;;14.45;100.00;100684.46;108213;1250;61742;-84
2023/06/19 02:05:42;;;;;;;21.80;14.60;;;;;;;14.45;100.00;100682.17;106585;1253;72626;-86
2023/06/19 02:08:09;;;;;;;25.20;15.00;;;;;;;14.45;100.00;100681.46;106072;1252;61663;-85
2023/06/19 02:10:36;;;;;;;23.20;15.50;;;;;;;14.44;100.00;100684.31;106091;1251;60552;-86
2023/06/19 02:13:03;;;;;;;22.20;14.50;;;;;;;14.43;100.00;100687.61;106068;1253;73916;-86
2023/06/19 02:15:30;;;;;;;21.10;14.60;;;;;;;14.40;100.00;100686.92;107662;1254;63897;-81
2023/06/19 02:17:57;;;;;;;19.40;13.80;;;;;;;14.37;100.00;100685.73;107900;1253;72559;-83
2023/06/19 02:20:25;;;;;;;22.00;14.30;;;;;;;14.37;100.00;100689.09;106093;1258;60526;-85
2023/06/19 02:22:57;;;;;;;20.00;14.50;;;;;;;14.37;100.00;100692.23;105903;1266;60434;-85
2023/06/19 02:25:24;;;;;;;21.90;14.40;;;;;;;14.39;100.00;100691.60;106032;1251;73818;-86
2023/06/19 02:27:50;;;;;;;18.80;13.60;;;;;;;14.40;100.00;100690.30;106047;1254;62751;-87
2023/06/19 02:30:18;;;;;;;18.80;13.40;;;;;;;14.41;100.00;100687.75;106050;1257;72767;-85
2023/06/19 02:32:46;;;;;;;18.10;13.90;;;;;;;14.43;100.00;100689.69;106098;1263;61809;-89
2023/06/19 02:35:15;;;;;;;21.20;14.10;;;;;;;14.45;100.00;100690.56;106174;1251;60454;-87
2023/06/19 02:37:42;;;;;;;20.90;14.30;;;;;;;14.48;100.00;100690.38;106142;1253;73098;-87
2023/06/19 02:40:10;;;;;;;22.80;14.90;;;;;;;14.50;100.00;100688.98;106016;1251;63623;-86
2023/06/19 02:42:38;;;;;;;21.60;13.10;;;;;;;14.53;100.00;100688.06;105797;1260;72866;-85
2023/06/19 02:45:05;;;;;;;19.40;13.70;;;;;;;14.56;100.00;100687.73;106077;1256;63102;-87
2023/06/19 02:47:33;;;;;;;22.90;13.80;;;;;;;14.59;100.00;100685.71;106050;1254;60527;-84
2023/06/19 02:50:02;;;;;;;17.60;13.00;;;;;;;14.61;100.00;100684.46;106044;1254;74338;-86
2023/06/19 02:52:29;;;;;;;18.00;12.40;;;;;;;14.65;100.00;100680.33;106070;1256;63889;-84
2023/06/19 02:54:56;;;;;;;17.90;12.90;;;;;;;14.68;100.00;100681.73;106091;1254;72517;-88
2023/06/19 02:57:24;;;;;;;20.00;13.40;;;;;;;14.71;100.00;100681.13;106057;1251;61716;-90
2023/06/19 02:59:51;;;;;;;18.10;14.10;;;;;;;14.74;100.00;100683.15;106295;1256;60412;-85
2023/06/19 03:02:18;;;;;;;17.50;11.70;;;;;;;14.79;100.00;100681.92;108383;1251;71696;-86
2023/06/19 03:04:45;;;;;;;15.70;13.00;;;;;;;14.83;100.00;100684.08;107168;1250;62509;-84
2023/06/19 03:07:13;;;;;;;16.70;13.30;;;;;;;14.87;100.00;100682.88;107300;1253;72680;-85
2023/06/19 03:09:41;;;;;;;20.30;14.80;;;;;;;14.92;100.00;100679.86;106717;1257;62005;-86
2023/06/19 03:12:09;;;;;;;18.00;12.70;;;;;;;14.97;100.00;100677.37;106156;1251;60549;-84
2023/06/19 03:14:37;;;;;;;16.60;12.70;;;;;;;15.04;100.00;100680.18;106003;1255;73624;-85
2023/06/19 03:17:05;;;;;;;18.00;13.10;;;;;;;15.10;100.00;100677.07;105911;1257;63772;-86
2023/06/19 03:19:32;;;;;;;19.00;13.10;;;;;;;15.17;100.00;100677.26;105898;1252;72737;-88
2023/06/19 03:21:59;;;;;;;16.10;10.80;;;;;;;15.25;100.00;100679.95;106169;1253;63073;-86
2023/06/19 03:24:26;;;;;;;17.10;12.20;;;;;;;15.35;100.00;100681.08;106106;1251;60431;-86
2023/06/19 03:26:58;;;;;;;24.10;11.50;;;;;;;15.45;100.00;100679.92;106089;1254;73904;-86
2023/06/19 03:29:28;;;;;;;15.50;10.30;;;;;;;15.54;100.00;100686.59;106052;1257;62848;-86
2023/06/19 03:32:00;;;;;;;14.30;8.90;;;;;;;15.65;100.00;100686.05;106022;1253;71755;-88
2023/06/19 03:34:31;;;;;;;13.80;10.20;;;;;;;15.81;100.00;100689.98;106095;1254;61864;-87
2023/06/19 03:36:58;;;;;;;16.80;10.30;;;;;;;15.96;100.00;100688.20;106164;1251;60348;-85
2023/06/19 03:39:25;;;;;;;14.80;10.30;;;;;;;16.13;100.00;100689.14;106003;1251;73831;-87
2023/06/19 03:41:54;;;;;;;12.60;9.30;;;;;;;16.28;100.00;100686.79;106679;1251;63733;-84
2023/06/19 03:44:23;;;;;;;16.10;9.70;;;;;;;16.44;100.00;100692.92;106563;1257;70814;-86
2023/06/19 03:46:52;;;;;;;16.20;10.00;;;;;;;16.60;100.00;100697.58;106077;1255;61950;-87
2023/06/19 03:49:20;;;;;;;21.20;12.90;;;;;;;16.76;100.00;100701.83;105901;1257;60583;-87
2023/06/19 03:51:50;;;;;;;13.50;10.70;;;;;;;16.93;100.00;100702.41;106313;1252;73706;-85
2023/06/19 03:54:16;;;;;;;15.40;10.50;;;;;;;17.09;100.00;100705.29;106029;1250;62669;-85
2023/06/19 03:56:44;;;;;;;12.40;9.90;;;;;;;17.24;100.00;100706.48;106123;1251;70796;-86
2023/06/19 03:59:11;;;;;;;15.00;9.20;;;;;;;17.38;100.00;100706.61;106182;1251;60761;-87
2023/06/19 04:01:38;;;;;;;12.70;7.90;;;;;;;17.54;100.00;100706.68;106267;1254;60431;-84
2023/06/19 04:04:05;;;;;;;16.40;12.80;;;;;;;17.67;100.00;100707.46;106494;1253;73905;-84
2023/06/19 04:06:32;;;;;;;11.40;7.60;;;;;;;17.80;100.00;100705.73;106129;1257;62674;-86
2023/06/19 04:08:59;;;;;;;12.10;8.30;;;;;;;17.96;100.00;100711.27;106106;1254;71428;-86
2023/06/19 04:11:25;;;;;;;12.70;7.20;;;;;;;18.12;100.00;100710.90;106033;1254;61919;-84
2023/06/19 04:13:53;;;;;;;12.90;8.90;;;;;;;18.32;100.00;100712.07;106085;1253;60398;-87
2023/06/19 04:16:20;;;;;;;12.40;8.30;;;;;;;18.64;100.00;100710.38;105920;1258;73244;-86
2023/06/19 04:18:48;;;;;;;13.90;7.70;;;;;;;19.10;100.00;100713.03;106033;1251;63641;-84
2023/06/19 04:21:15;;;;;;;11.00;7.80;;;;;;;19.71;100.00;100718.20;106422;1256;72645;-85
2023/06/19 04:23:42;;;;;;;11.10;7.60;;;;;;;20.36;98.09;100721.65;106212;1254;60637;-83
2023/06/19 04:26:08;;;;;;;9.90;7.20;;;;;;;21.00;95.42;100721.15;107931;1251;60336;-84
2023/06/19 04:28:35;;;;;;;15.20;6.40;;;;;;;21.64;90.49;100722.08;109865;1251;72701;-85
2023/06/19 04:31:02;;;;;;;8.10;6.00;;;;;;;22.28;86.05;100722.80;109896;1250;62621;-85
2023/06/19 04:33:29;;;;;;;9.20;5.70;;;;;;;22.86;75.44;100722.42;109788;1251;71426;-84
2023/06/19 04:35:56;;;;;;;10.30;4.70;;;;;;;23.41;67.95;100720.33;109849;1250;59013;-85
2023/06/19 04:38:26;;;;;;;8.70;5.10;;;;;;;23.91;63.66;100723.17;109937;1250;59104;-82
2023/06/19 04:40:53;;;;;;;6.80;4.50;;;;;;;24.37;56.31;100722.48;109910;1251;72423;-85
2023/06/19 04:43:29;;;;;;;9.50;5.20;;;;;;;24.83;56.34;100719.66;109902;1251;63087;-85
2023/06/19 04:45:56;;;;;;;10.80;5.00;;;;;;;25.26;54.53;100726.13;109906;1251;71586;-84
2023/06/19 04:48:24;;;;;;;12.80;5.10;;;;;;;25.68;52.07;100727.38;109855;1251;59455;-85
2023/06/19 04:50:52;;;;;;;8.70;5.00;;;;;;;26.12;50.94;100726.69;109958;1251;61690;-84
2023/06/19 04:53:19;;;;;;;5.90;4.20;;;;;;;26.49;47.59;100727.28;109874;1254;72586;-87
2023/06/19 04:55:46;;;;;;;8.80;4.80;;;;;;;26.77;43.03;100720.33;107849;1251;62461;-86
2023/06/19 04:58:13;;;;;;;8.70;4.70;;;;;;;26.97;43.12;100718.01;106650;1251;72566;-84
2023/06/19 05:00:39;;;;;;;9.10;4.70;;;;;;;27.26;44.61;100721.97;108200;1251;60520;-84
2023/06/19 05:03:06;;;;;;;9.60;7.00;;;;;;;27.62;43.58;100722.00;107398;1251;60430;-85
2023/06/19 05:05:33;;;;;;;6.90;5.30;;;;;;;27.93;41.88;100722.25;107230;1253;73296;-85
2023/06/19 05:07:59;;;;;;;6.10;4.80;;;;;;;28.25;41.71;100725.63;107446;1250;62635;-86
2023/06/19 05:10:26;;;;;;;10.10;5.50;;;;;;;28.62;40.33;100726.34;107506;1251;71185;-86
2023/06/19 05:12:53;;;;;;;9.00;5.10;;;;;;;28.96;39.18;100729.08;107917;1253;60447;-85
2023/06/19 05:15:20;;;;;;;7.50;4.90;;;;;;;29.21;38.27;100726.14;107834;1251;60952;-86
2023/06/19 05:17:48;;;;;;;8.80;5.00;;;;;;;29.49;37.99;100728.62;108880;1251;72129;-85
2023/06/19 05:20:15;;;;;;;11.20;5.50;;;;;;;29.74;37.13;100730.73;108551;1251;63091;-86
2023/06/19 05:22:42;;;;;;;6.60;4.90;;;;;;;29.94;36.72;100735.15;108393;1251;72646;-87
2023/06/19 05:25:09;;;;;;;10.40;6.60;;;;;;;30.14;36.17;100740.30;106200;1251;60536;-87
2023/06/19 05:27:37;;;;;;;9.10;5.70;;;;;;;30.39;35.20;100738.16;106250;1250;60453;-87
2023/06/19 05:30:05;;;;;;;7.70;4.70;;;;;;;30.58;34.92;100741.29;106152;1251;72549;-85
2023/06/19 05:32:33;;;;;;;6.50;5.30;;;;;;;30.77;34.16;100738.92;106052;1254;63746;-84
2023/06/19 05:35:01;;;;;;;9.30;4.90;;;;;;;30.91;33.56;100743.56;106113;1251;72762;-90
2023/06/19 05:37:28;;;;;;;6.40;4.10;;;;;;;31.08;33.19;100746.11;106123;1253;60387;-85
2023/06/19 05:39:54;;;;;;;8.90;4.20;;;;;;;31.25;32.78;100746.38;106038;1253;60511;-89
2023/06/19 05:42:22;;;;;;;11.20;4.90;;;;;;;31.44;32.42;100745.68;106243;1254;73786;-91
2023/06/19 05:44:49;;;;;;;9.20;4.40;;;;;;;31.60;32.39;100743.23;106006;1254;63994;-87
2023/06/19 05:47:17;;;;;;;7.60;3.50;;;;;;;31.76;32.24;100743.39;106127;1251;72736;-86
2023/06/19 05:49:44;;;;;;;6.30;3.90;;;;;;;31.93;31.86;100744.30;106206;1254;60716;-89
2023/06/19 05:52:11;;;;;;;7.00;4.10;;;;;;;32.10;31.52;100744.66;106647;1251;60859;-86
2023/06/19 05:54:38;;;;;;;9.80;4.00;;;;;;;32.29;31.32;100742.41;106473;1253;73866;-86
2023/06/19 05:57:05;;;;;;;11.10;4.20;;;;;;;32.44;31.08;100742.84;106368;1254;65019;-86
2023/06/19 05:59:33;;;;;;;6.30;3.70;;;;;;;32.57;30.78;100741.73;106868;1251;73502;-84
2023/06/19 06:02:03;;;;;;;11.40;3.70;;;;;;;32.67;30.66;100738.27;106379;1251;60360;-83
2023/06/19 06:04:30;;;;;;;6.00;3.60;;;;;;;32.80;30.03;100737.37;106065;1251;60485;-86
2023/06/19 06:06:57;;;;;;;6.00;3.20;;;;;;;32.93;29.59;100736.36;106135;1251;73810;-86
2023/06/19 06:09:26;;;;;;;10.90;3.60;;;;;;;33.11;30.06;100734.91;106027;1251;64105;-89
2023/06/19 06:11:53;;;;;;;5.90;3.70;;;;;;;33.25;30.17;100729.09;106021;1251;72509;-87
2023/06/19 06:14:20;;;;;;;9.30;2.90;;;;;;;33.40;29.41;100726.04;105913;1256;60616;-87
2023/06/19 06:16:47;;;;;;;6.70;3.20;;;;;;;33.53;29.42;100725.74;106042;1251;60424;-85
2023/06/19 06:19:14;;;;;;;5.20;2.70;;;;;;;33.61;29.26;100726.56;106028;1257;72069;-89
2023/06/19 06:21:42;;;;;;;6.70;2.50;;;;;;;33.74;28.57;100718.55;106150;1251;63825;-87
2023/06/19 06:24:09;;;;;;;8.10;3.20;;;;;;;33.89;28.37;100723.95;106080;1254;72431;-87
2023/06/19 06:26:36;;;;;;;11.10;3.20;;;;;;;34.02;28.44;100720.20;106227;1251;60542;-87
2023/06/19 06:29:03;;;;;;;5.20;3.30;;;;;;;34.15;28.59;100716.85;106270;1254;60338;-86
2023/06/19 06:31:30;;;;;;;6.90;4.90;;;;;;;34.32;28.29;100721.33;107356;1251;73616;-86
2023/06/19 06:33:57;;;;;;;9.00;3.50;;;;;;;34.51;27.57;100720.70;107696;1253;63829;-84
2023/06/19 06:36:24;;;;;;;10.20;4.40;;;;;;;34.67;26.53;100722.60;106640;1251;72479;-90
2023/06/19 06:39:03;;;;;;;7.90;3.20;;;;;;;34.80;26.96;100724.32;106056;1251;60666;-88
2023/06/19 06:41:30;;;;;;;5.80;3.20;;;;;;;34.91;26.65;100723.05;106150;1251;60411;-87
2023/06/19 06:43:56;;;;;;;9.50;4.00;;;;;;;34.91;25.47;100725.06;106053;1251;73650;-85
2023/06/19 06:46:23;;;;;;;8.40;3.20;;;;;;;34.85;25.23;100721.12;106013;1257;63102;-87
2023/06/19 06:48:50;;;;;;;5.30;3.20;;;;;;;34.83;26.09;100715.92;106168;1251;72610;-87
2023/06/19 06:51:17;;;;;;;9.70;3.30;;;;;;;34.97;26.21;100715.17;106177;1254;60533;-86
2023/06/19 06:53:44;;;;;;;3.80;2.30;;;;;;;35.12;25.98;100714.41;106591;1257;60401;-84
2023/06/19 06:56:11;;;;;;;5.60;2.70;;;;;;;35.28;25.54;100715.33;106269;1251;72466;-88
2023/06/19 06:58:39;;;;;;;10.90;4.40;;;;;;;35.41;25.26;100717.60;106136;1251;64052;-87
2023/06/19 07:01:06;;;;;;;5.20;3.50;;;;;;;35.51;25.05;100720.19;106131;1251;72630;-87
2023/06/19 07:03:36;;;;;;;4.10;2.70;;;;;;;35.61;24.71;100716.48;106102;1254;60440;-88
2023/06/19 07:06:03;;;;;;;5.90;2.90;;;;;;;35.65;24.10;100715.67;107371;1251;60427;-85
2023/06/19 07:08:30;;;;;;;8.60;2.50;;;;;;;35.62;23.63;100712.41;106578;1251;72226;-87
2023/06/19 07:10:58;;;;;;;6.00;3.00;;;;;;;35.58;24.01;100714.18;106095;1254;63828;-86
2023/06/19 07:13:30;;;;;;;3.70;2.80;;;;;;;35.58;24.24;100706.21;106175;1251;72763;-85
2023/06/19 07:16:06;;;;;;;6.90;3.10;;;;;;;35.69;24.29;100706.49;109372;1250;60934;-86
2023/06/19 07:18:35;;;;;;;8.90;3.60;;;;;;;35.80;24.04;100707.20;109768;1250;57947;-84
2023/06/19 07:21:14;;;;;;;9.70;3.60;;;;;;;35.89;22.94;100711.55;109812;1251;72802;-85
2023/06/19 07:23:43;;;;;;;5.50;2.30;;;;;;;35.81;22.88;100704.63;109848;1251;62647;-85
2023/06/19 07:26:13;;;;;;;5.70;3.10;;;;;;;35.76;22.63;100700.39;109879;1250;73665;-84
2023/06/19 07:28:42;;;;;;;6.00;2.50;;;;;;;35.85;23.14;100698.05;109855;1250;59002;-85
2023/06/19 07:31:09;;;;;;;2.70;1.90;;;;;;;35.92;22.53;100701.80;109846;1250;58900;-84
2023/06/19 07:33:36;;;;;;;7.70;2.40;;;;;;;35.84;21.96;100703.67;109801;1250;72664;-84
2023/06/19 07:36:03;;;;;;;7.20;2.10;;;;;;;35.75;22.63;100698.30;109930;1249;62457;-84
2023/06/19 07:38:30;;;;;;;5.30;2.40;;;;;;;35.80;22.88;100699.82;109901;1251;71347;-84
2023/06/19 07:40:57;;;;;;;3.10;2.20;;;;;;;35.96;23.25;100698.44;109135;1251;59534;-84
2023/06/19 07:43:24;;;;;;;5.20;2.20;;;;;;;36.12;22.51;100706.84;108484;1249;60479;-84
2023/06/19 07:45:50;;;;;;;5.10;2.10;;;;;;;36.18;22.31;100702.87;109061;1250;74136;-85
2023/06/19 07:48:19;;;;;;;2.90;2.60;;;;;;;36.24;22.13;100699.58;108603;1251;62919;-85
2023/06/19 07:50:46;;;;;;;6.60;2.10;;;;;;;36.25;21.77;100698.55;108811;1250;71118;-85
2023/06/19 07:53:13;;;;;;;4.00;2.20;;;;;;;36.30;21.34;100702.42;108477;1249;59316;-85
2023/06/19 07:55:42;;;;;;;6.60;3.00;;;;;;;36.31;21.44;100701.61;109048;1250;59231;-85
2023/06/19 07:58:09;;;;;;;2.80;2.00;;;;;;;36.37;22.32;100699.84;108095;1251;73927;-83
2023/06/19 08:00:37;;;;;;;4.50;2.20;;;;;;;36.49;22.16;100702.48;108106;1253;60274;-85
2023/06/19 08:03:04;;;;;;;4.90;1.90;;;;;;;36.55;21.75;100706.29;106756;1251;71719;-91
2023/06/19 08:05:31;;;;;;;9.70;2.10;;;;;;;36.59;21.71;100703.77;106079;1251;60510;-86
2023/06/19 08:08:03;;;;;;;4.50;2.30;;;;;;;36.57;20.99;100704.58;106444;1250;60543;-86
2023/06/19 08:10:30;;;;;;;3.40;1.50;;;;;;;36.49;21.26;100701.29;106306;1251;64051;-88
2023/06/19 08:12:58;;;;;;;3.20;1.60;;;;;;;36.48;21.96;100697.79;106036;1254;60322;-86
2023/06/19 08:15:24;;;;;;;8.70;2.10;;;;;;;36.60;21.43;100700.29;106140;1251;72814;-86
2023/06/19 08:17:51;;;;;;;5.00;2.10;;;;;;;36.69;21.31;100701.02;106030;1251;60542;-85
2023/06/19 08:20:19;;;;;;;5.30;1.80;;;;;;;36.81;21.55;100705.06;106011;1250;60545;-87
2023/06/19 08:22:47;;;;;;;4.40;1.70;;;;;;;36.89;21.22;100702.98;106098;1254;73663;-85
2023/06/19 08:25:14;;;;;;;3.00;2.50;;;;;;;36.92;21.69;100702.77;106048;1250;60603;-85
2023/06/19 08:27:41;;;;;;;11.70;2.70;;;;;;;36.96;21.16;100702.58;106100;1250;62974;-85
2023/06/19 08:30:08;;;;;;;4.00;1.90;;;;;;;36.98;20.92;100705.05;106130;1251;60455;-86
2023/06/19 08:32:35;;;;;;;5.80;1.60;;;;;;;36.99;19.87;100699.30;106156;1251;60527;-89
2023/06/19 08:35:03;;;;;;;7.70;1.70;;;;;;;36.91;19.54;100713.27;106089;1251;65432;-87
2023/06/19 08:37:30;;;;;;;2.20;1.90;;;;;;;36.71;19.78;100705.05;106159;1254;60434;-87
2023/06/19 08:39:57;;;;;;;6.20;2.00;;;;;;;36.56;20.18;100710.46;106066;1251;64049;-88
2023/06/19 08:42:24;;;;;;;3.90;1.90;;;;;;;36.47;19.97;100697.29;106080;1251;60549;-85
2023/06/19 08:44:50;;;;;;;4.80;1.90;;;;;;;36.41;20.26;100702.81;106172;1251;61212;-87
2023/06/19 08:47:17;;;;;;;6.80;2.20;;;;;;;36.35;21.02;100703.05;106174;1254;73811;-88
2023/06/19 08:50:02;;;;;;;3.70;2.80;;;;;;;36.38;20.51;100699.79;104161;1291;600859;-86
2023/06/19 08:52:30;;;;;;;4.30;2.50;;;;;;;36.33;20.30;100702.77;106881;1265;60256;-85
2023/06/19 08:54:58;;;;;;;2.90;2.00;;;;;;;36.36;20.55;100704.91;106165;1257;59213;-85
2023/06/19 08:57:37;;;;;;;4.30;1.90;;;;;;;36.45;20.92;100702.30;105202;1265;71542;-88
2023/06/19 09:00:09;;;;;;;6.20;2.40;;;;;;;36.56;20.98;100701.33;106009;1257;59156;-87
2023/06/19 09:14:41;;;;;;;3.50;1.80;;;;;;;36.70;19.67;100705.93;102853;1296;600316;-89
2023/06/19 09:17:17;;;;;;;3.40;2.60;;;;;;;36.47;20.48;100696.84;105243;1267;60254;-87
2023/06/19 09:19:51;;;;;;;4.00;2.00;;;;;;;36.39;20.53;100693.46;105615;1263;59375;-90
2023/06/19 09:22:21;;;;;;;4.80;2.40;;;;;;;36.42;20.74;100685.34;105442;1258;63453;-87
2023/06/19 09:24:49;;;;;;;2.80;2.10;;;;;;;36.43;20.06;100689.11;105432;1257;59193;-88
2023/06/19 09:27:19;;;;;;;7.40;2.40;;;;;;;36.37;19.94;100688.69;105190;1259;913966;-88
2023/06/19 09:29:50;;;;;;;8.30;1.90;;;;;;;36.26;20.37;100686.87;105830;1254;59487;-86
2023/06/19 09:32:25;;;;;;;7.30;1.50;;;;;;;36.20;20.81;100684.48;105899;1251;59505;-88
2023/06/19 09:34:55;;;;;;;4.60;1.90;;;;;;;36.22;21.18;100684.77;106053;1251;71082;-89
2023/06/19 09:41:31;;;;;;;4.50;2.00;;;;;;;36.15;20.11;100679.14;106155;1251;72875;-90
2023/06/19 09:43:59;;;;;;;6.40;2.20;;;;;;;36.19;20.68;100678.57;105881;1257;62918;-87
2023/06/19 09:46:31;;;;;;;4.40;1.90;;;;;;;36.34;20.10;100683.54;105981;1257;62362;-85
2023/06/19 09:49:01;;;;;;;2.40;2.20;;;;;;;36.35;19.99;100680.54;106118;1252;64068;-87
2023/06/19 09:51:33;;;;;;;2.50;2.10;;;;;;;36.35;19.76;100681.63;106061;1257;63538;-87
2023/06/19 09:54:03;;;;;;;3.20;1.90;;;;;;;36.27;19.53;100676.17;105869;1256;73135;-86
2023/06/19 09:56:31;;;;;;;6.30;2.40;;;;;;;36.19;19.73;100676.11;106039;1252;59793;-87
2023/06/19 09:59:02;;;;;;;6.70;2.60;;;;;;;36.17;20.20;100671.83;106064;1256;60310;-87
2023/06/19 10:01:31;;;;;;;3.40;2.20;;;;;;;36.20;19.77;100671.65;106082;1251;71982;-89
2023/06/19 10:04:06;;;;;;;7.30;2.40;;;;;;;36.23;19.82;100660.02;105999;1253;63635;-87
2023/06/19 10:06:47;;;;;;;2.60;1.90;;;;;;;36.25;19.74;100668.89;105974;1257;73877;-85
2023/06/19 10:09:17;;;;;;;3.90;2.10;;;;;;;36.19;19.69;100660.38;106587;1251;60695;-88
2023/06/19 10:11:47;;;;;;;5.50;2.10;;;;;;;36.17;19.55;100664.67;107486;1256;59695;-85
2023/06/19 10:14:18;;;;;;;4.20;1.90;;;;;;;36.09;20.10;100660.33;106092;1257;72422;-88
2023/06/19 10:16:45;;;;;;;4.40;3.00;;;;;;;36.08;20.30;100661.35;105891;1251;63214;-85
2023/06/19 10:19:18;;;;;;;4.20;2.60;;;;;;;36.14;20.41;100659.63;106084;1257;72476;-89
2023/06/19 10:21:51;;;;;;;4.90;1.90;;;;;;;36.26;20.65;100655.73;106105;1254;59993;-87
2023/06/19 10:24:19;;;;;;;4.20;2.10;;;;;;;36.37;20.03;100655.26;105906;1251;59653;-86
2023/06/19 10:26:59;;;;;;;2.00;1.90;;;;;;;36.42;19.85;100654.10;106041;1256;73090;-87
2023/06/19 10:29:37;;;;;;;3.20;2.10;;;;;;;36.37;19.64;100655.25;105991;1251;62863;-88
2023/06/19 10:32:05;;;;;;;4.30;2.10;;;;;;;36.22;19.67;100651.94;105939;1256;73254;-86
2023/06/19 10:34:34;;;;;;;3.00;2.20;;;;;;;36.13;19.52;100647.98;106005;1256;60432;-89
2023/06/19 10:49:29;;;;;;;10.40;2.00;;;;;;;35.91;19.30;100640.41;102697;1293;616709;-88
2023/06/19 10:51:59;;;;;;;5.60;2.10;;;;;;;35.98;19.76;100639.45;106017;1257;60082;-88
2023/06/19 10:54:28;;;;;;;3.50;2.30;;;;;;;36.01;19.89;100639.68;106075;1257;59786;-85
2023/06/19 10:56:57;;;;;;;3.90;2.10;;;;;;;36.05;19.72;100635.62;106019;1260;71047;-86
2023/06/19 10:59:24;;;;;;;3.20;2.60;;;;;;;36.16;19.71;100636.34;106145;1257;62356;-87
2023/06/19 11:01:52;;;;;;;3.50;2.90;;;;;;;36.21;19.19;100634.95;105328;1254;1199549;-88
2023/06/19 11:04:19;;;;;;;3.50;2.00;;;;;;;36.16;18.88;100631.58;106607;1256;59221;-88
2023/06/19 11:06:47;;;;;;;2.60;1.80;;;;;;;36.03;19.27;100620.86;107368;1251;60229;-86
2023/06/19 11:09:14;;;;;;;2.10;1.90;;;;;;;35.93;18.92;100630.99;107421;1254;73262;-82
2023/06/19 11:11:45;;;;;;;4.30;3.90;;;;;;;35.72;19.61;100627.36;106916;1251;64668;-85
2023/06/19 11:14:14;;;;;;;3.90;2.80;;;;;;;35.55;19.80;100624.35;106428;1254;72597;-86
2023/06/19 11:16:45;;;;;;;4.00;2.00;;;;;;;35.50;20.42;100624.59;106598;1253;59730;-85
2023/06/19 11:19:19;;;;;;;4.10;2.40;;;;;;;35.46;19.95;100626.63;106339;1249;60178;-89
2023/06/19 11:21:48;;;;;;;2.40;2.20;;;;;;;35.34;19.14;100628.17;106193;1253;73131;-87
2023/06/19 11:24:15;;;;;;;2.40;2.20;;;;;;;35.03;19.28;100620.19;106612;1253;63761;-86
2023/06/19 11:26:49;;;;;;;3.50;2.60;;;;;;;34.76;19.90;100620.23;106494;1254;71588;-91
2023/06/19 11:29:18;;;;;;;4.60;2.10;;;;;;;34.48;20.19;100626.26;106189;1251;59682;-90
2023/06/19 11:31:45;;;;;;;7.20;2.20;;;;;;;34.16;21.02;100626.00;106135;1256;60319;-85
2023/06/19 11:34:14;;;;;;;3.00;2.10;;;;;;;33.87;21.19;100626.21;106457;1254;73085;-86
2023/06/19 11:36:41;;;;;;;4.10;3.00;;;;;;;33.52;20.91;100628.46;106092;1254;63240;-91
2023/06/19 11:39:13;;;;;;;6.90;4.60;;;;;;;33.19;21.45;100620.27;106025;1257;71444;-88
2023/06/19 11:41:40;;;;;;;2.20;2.00;;;;;;;32.84;21.91;100622.65;106010;1252;60464;-91